Thomson Dream — 9HA2381 — position and weather

sailwx.info

Track history (hours):
 
Tides and Currents Weather Stations Pressure Air Temp Water Temp Dewpoint Dewpoint Depression Visibility Wind Speed Wind Dir Waves Ship Positions

Thomson Dream

Last reported at 2015-Jul-01 14:22 UTC. Time now 2015-Jul-01 15:15 UTC.
Position N 44°20' E 009°14'.

Length 243 m; draft 7.6 m.

Type: Ship. MMSI: 248480975.

Date/timePositionNaut miles runAvg speedWind from/ knotsBaromVisibWave heightAir tempDewpointWater temp
2015-Jul-01 14:22N 44°20' E 009°14'0 0.0
2015-Jul-01 13:16N 44°20' E 009°14'0 0.0
2015-Jul-01 12:16N 44°20' E 009°14'0 0.0
2015-Jul-01 11:22N 44°20' E 009°14'4 0.6
2015-Jul-01 03:33N 44°16' E 009°17'1212.3
2015-Jul-01 02:33N 44°04' E 009°11'4 3.8
2015-Jul-01 01:33N 44°00' E 009°10'0 0.3
2015-Jul-01 00:33N 44°00' E 009°10'2 2.4
2015-Jun-30 23:33N 43°58' E 009°11'1312.8
2015-Jun-30 22:33N 43°47' E 009°22'1212.0
2015-Jun-30 21:33N 43°39' E 009°34'1010.5
2015-Jun-30 20:33N 43°33' E 009°46'2 2.0
2015-Jun-30 19:33N 43°33' E 009°48'9 9.2
2015-Jun-30 18:33N 43°30' E 010°01'1212.3
2015-Jun-30 17:33N 43°33' E 010°17'1 0.1
2015-Jun-30 07:33N 43°34' E 010°18'0 0.0
2015-Jun-30 06:33N 43°34' E 010°18'0 0.0
2015-Jun-30 05:33N 43°34' E 010°18'0 0.2
2015-Jun-30 04:33N 43°33' E 010°18'7 6.7
2015-Jun-30 03:33N 43°29' E 010°11'1010.1
2015-Jun-30 02:33N 43°22' E 010°01'1010.0
2015-Jun-30 01:33N 43°20' E 009°48'1110.6
2015-Jun-30 00:33N 43°22' E 009°33'1110.7
2015-Jun-29 23:33N 43°24' E 009°19'1110.7
2015-Jun-29 22:33N 43°26' E 009°04'1110.8
2015-Jun-29 21:33N 43°28' E 008°50'1110.8
2015-Jun-29 20:33N 43°30' E 008°35'1110.9
2015-Jun-29 19:33N 43°32' E 008°20'1111.1
2015-Jun-29 18:33N 43°34' E 008°05'1110.9
2015-Jun-29 17:33N 43°35' E 007°51'1110.5
2015-Jun-29 16:33N 43°37' E 007°36'1110.7
2015-Jun-29 15:33N 43°39' E 007°22'3 2.6
2015-Jun-29 14:31N 43°41' E 007°19'0 0.0
2015-Jun-29 13:31N 43°41' E 007°19'0 0.0
2015-Jun-29 12:25N 43°41' E 007°19'0 0.0
2015-Jun-29 10:31N 43°41' E 007°19'0 0.0
2015-Jun-29 09:28N 43°41' E 007°19'0 0.0
2015-Jun-29 08:31N 43°41' E 007°19'0 0.0
2015-Jun-29 07:31N 43°41' E 007°19'0 0.0
2015-Jun-29 05:07N 43°41' E 007°19'0 0.2
2015-Jun-29 04:33N 43°41' E 007°19'6 5.8
2015-Jun-29 03:33N 43°35' E 007°17'9 8.9
2015-Jun-29 02:33N 43°27' E 007°13'1110.9
2015-Jun-29 01:33N 43°19' E 007°03'1211.0
2015-Jun-29 00:26N 43°10' E 006°51'1010.8
2015-Jun-28 23:33N 43°03' E 006°42'1010.5
2015-Jun-28 22:33N 42°56' E 006°32'1111.0
2015-Jun-28 21:33N 42°48' E 006°21'1111.0
2015-Jun-28 20:33N 42°40' E 006°10'1110.9
2015-Jun-28 19:34N 42°32' E 006°00'1311.2
2015-Jun-28 18:24N 42°23' E 005°48'1011.6
2015-Jun-28 17:33N 42°16' E 005°38'1211.5
2015-Jun-28 16:33N 42°08' E 005°28'14511.0
2015-Jun-28 03:22N 40°24' E 003°12'1316.2
2015-Jun-28 02:33N 40°15' E 003°00'1716.9
2015-Jun-28 01:33N 40°03' E 002°45'1716.5
2015-Jun-28 00:33N 39°52' E 002°29'1716.7
2015-Jun-27 23:33N 39°39' E 002°15'1313.4
2015-Jun-27 22:33N 39°26' E 002°20'1312.7
2015-Jun-27 21:33N 39°28' E 002°36'6 5.8
2015-Jun-27 20:33N 39°33' E 002°38'0 0.0
2015-Jun-27 19:33N 39°33' E 002°38'0 0.0
2015-Jun-27 18:33N 39°33' E 002°38'0 0.0
2015-Jun-27 17:33N 39°33' E 002°38'0 0.0
2015-Jun-27 16:33N 39°33' E 002°38'0 0.0
2015-Jun-27 15:33N 39°33' E 002°38'0 0.0
2015-Jun-27 14:33N 39°33' E 002°38'0 0.0
2015-Jun-27 13:27N 39°33' E 002°38'0 0.0
2015-Jun-27 11:33N 39°33' E 002°38'0 0.0
2015-Jun-27 10:33N 39°33' E 002°38'0 0.0
2015-Jun-27 09:33N 39°33' E 002°38'0 0.0
2015-Jun-27 08:33N 39°33' E 002°38'0 0.0
2015-Jun-27 07:33N 39°33' E 002°38'0 0.0
2015-Jun-27 06:33N 39°33' E 002°38'0 0.0
2015-Jun-27 05:33N 39°33' E 002°38'0 0.0
2015-Jun-27 04:33N 39°33' E 002°38'0 0.1
2015-Jun-27 03:33N 39°33' E 002°38'6 6.2
2015-Jun-27 02:33N 39°27' E 002°35'1010.0
2015-Jun-27 01:33N 39°24' E 002°23'1110.9
2015-Jun-27 00:33N 39°24' E 002°09'1110.9
2015-Jun-26 23:33N 39°24' E 001°55'1111.1
2015-Jun-26 22:34N 39°24' E 001°40'1111.0
2015-Jun-26 21:32N 39°24' E 001°26'1111.1
2015-Jun-26 20:33N 39°24' E 001°12'1111.2
2015-Jun-26 19:32N 39°24' E 000°57'1111.4
2015-Jun-26 18:33N 39°25' E 000°42'1111.0
2015-Jun-26 17:33N 39°24' E 000°28'1212.3
2015-Jun-26 16:33N 39°24' E 000°12'1616.3
2015-Jun-26 15:33N 39°24' W 000°09'9 0.9
2015-Jun-26 05:34N 39°27' W 000°19'8 7.5
2015-Jun-26 04:33N 39°22' W 000°12'3310.9
2015-Jun-26 01:33N 38°58' E 000°16'1210.6
2015-Jun-26 00:26N 38°48' E 000°25'9 9.6
2015-Jun-25 23:33N 38°40' E 000°26'1111.2
2015-Jun-25 22:32N 38°30' E 000°19'1111.2
2015-Jun-25 21:33N 38°20' E 000°12'1616.0
2015-Jun-25 20:33N 38°07' E 000°00'1717.2
2015-Jun-25 19:33N 37°52' W 000°11'1716.8
2015-Jun-25 18:34N 37°39' W 000°24'1616.0
2015-Jun-25 17:33N 37°30' W 000°40'16 1.7
2015-Jun-25 08:17N 37°36' W 000°59'4 5.4
2015-Jun-25 07:30N 37°32' W 001°01'8613.5
2015-Jun-25 01:07N 36°24' W 002°08'1217.0
2015-Jun-25 00:23N 36°20' W 002°22'14418.4
2015-Jun-24 16:34N 35°59' W 005°19'32 2.8
2015-Jun-24 05:08N 35°52' W 005°58'15 0.4
2015-Jun-22 18:33N 35°58' W 005°40'9 8.3
2015-Jun-22 17:31N 35°60' W 005°30'7 7.6
2015-Jun-22 16:33N 36°05' W 005°23'5 0.4
2015-Jun-22 04:33N 36°06' W 005°17'12310.9
2015-Jun-21 17:11N 36°24' W 002°45'710.8
2015-Jun-21 16:33N 36°25' W 002°37'1111.2
2015-Jun-21 15:33N 36°26' W 002°23'1313.3
2015-Jun-21 14:33N 36°28' W 002°07'  
Track history (hours):
 
Tides and Currents Weather Stations Pressure Air Temp Water Temp Dewpoint Dewpoint Depression Visibility Wind Speed Wind Dir Waves Ship Positions

Thomson Dream

Last reported at 2015-Jul-01 14:22 UTC. Time now 2015-Jul-01 15:15 UTC.
Position N 44°20' E 009°14'.

Length 243 m; draft 7.6 m.

Type: Ship. MMSI: 248480975.

Date/timePositionNaut miles runAvg speedWind from/ knotsBaromVisibWave heightAir tempDewpointWater temp
2015-Jul-01 14:22N 44°20' E 009°14'0 0.0
2015-Jul-01 13:16N 44°20' E 009°14'0 0.0
2015-Jul-01 12:16N 44°20' E 009°14'0 0.0
2015-Jul-01 11:22N 44°20' E 009°14'4 0.6
2015-Jul-01 03:33N 44°16' E 009°17'1212.3
2015-Jul-01 02:33N 44°04' E 009°11'4 3.8
2015-Jul-01 01:33N 44°00' E 009°10'0 0.3
2015-Jul-01 00:33N 44°00' E 009°10'2 2.4
2015-Jun-30 23:33N 43°58' E 009°11'1312.8
2015-Jun-30 22:33N 43°47' E 009°22'1212.0
2015-Jun-30 21:33N 43°39' E 009°34'1010.5
2015-Jun-30 20:33N 43°33' E 009°46'2 2.0
2015-Jun-30 19:33N 43°33' E 009°48'9 9.2
2015-Jun-30 18:33N 43°30' E 010°01'1212.3
2015-Jun-30 17:33N 43°33' E 010°17'1 0.1
2015-Jun-30 07:33N 43°34' E 010°18'0 0.0
2015-Jun-30 06:33N 43°34' E 010°18'0 0.0
2015-Jun-30 05:33N 43°34' E 010°18'0 0.2
2015-Jun-30 04:33N 43°33' E 010°18'7 6.7
2015-Jun-30 03:33N 43°29' E 010°11'1010.1
2015-Jun-30 02:33N 43°22' E 010°01'1010.0
2015-Jun-30 01:33N 43°20' E 009°48'1110.6
2015-Jun-30 00:33N 43°22' E 009°33'1110.7
2015-Jun-29 23:33N 43°24' E 009°19'1110.7
2015-Jun-29 22:33N 43°26' E 009°04'1110.8
2015-Jun-29 21:33N 43°28' E 008°50'1110.8
2015-Jun-29 20:33N 43°30' E 008°35'1110.9
2015-Jun-29 19:33N 43°32' E 008°20'1111.1
2015-Jun-29 18:33N 43°34' E 008°05'1110.9
2015-Jun-29 17:33N 43°35' E 007°51'1110.5
2015-Jun-29 16:33N 43°37' E 007°36'1110.7
2015-Jun-29 15:33N 43°39' E 007°22'3 2.6
2015-Jun-29 14:31N 43°41' E 007°19'0 0.0
2015-Jun-29 13:31N 43°41' E 007°19'0 0.0
2015-Jun-29 12:25N 43°41' E 007°19'0 0.0
2015-Jun-29 10:31N 43°41' E 007°19'0 0.0
2015-Jun-29 09:28N 43°41' E 007°19'0 0.0
2015-Jun-29 08:31N 43°41' E 007°19'0 0.0
2015-Jun-29 07:31N 43°41' E 007°19'0 0.0
2015-Jun-29 05:07N 43°41' E 007°19'0 0.2
2015-Jun-29 04:33N 43°41' E 007°19'6 5.8
2015-Jun-29 03:33N 43°35' E 007°17'9 8.9
2015-Jun-29 02:33N 43°27' E 007°13'1110.9
2015-Jun-29 01:33N 43°19' E 007°03'1211.0
2015-Jun-29 00:26N 43°10' E 006°51'1010.8
2015-Jun-28 23:33N 43°03' E 006°42'1010.5
2015-Jun-28 22:33N 42°56' E 006°32'1111.0
2015-Jun-28 21:33N 42°48' E 006°21'1111.0
2015-Jun-28 20:33N 42°40' E 006°10'1110.9
2015-Jun-28 19:34N 42°32' E 006°00'1311.2
2015-Jun-28 18:24N 42°23' E 005°48'1011.6
2015-Jun-28 17:33N 42°16' E 005°38'1211.5
2015-Jun-28 16:33N 42°08' E 005°28'14511.0
2015-Jun-28 03:22N 40°24' E 003°12'1316.2
2015-Jun-28 02:33N 40°15' E 003°00'1716.9
2015-Jun-28 01:33N 40°03' E 002°45'1716.5
2015-Jun-28 00:33N 39°52' E 002°29'1716.7
2015-Jun-27 23:33N 39°39' E 002°15'1313.4
2015-Jun-27 22:33N 39°26' E 002°20'1312.7
2015-Jun-27 21:33N 39°28' E 002°36'6 5.8
2015-Jun-27 20:33N 39°33' E 002°38'0 0.0
2015-Jun-27 19:33N 39°33' E 002°38'0 0.0
2015-Jun-27 18:33N 39°33' E 002°38'0 0.0
2015-Jun-27 17:33N 39°33' E 002°38'0 0.0
2015-Jun-27 16:33N 39°33' E 002°38'0 0.0
2015-Jun-27 15:33N 39°33' E 002°38'0 0.0
2015-Jun-27 14:33N 39°33' E 002°38'0 0.0
2015-Jun-27 13:27N 39°33' E 002°38'0 0.0
2015-Jun-27 11:33N 39°33' E 002°38'0 0.0
2015-Jun-27 10:33N 39°33' E 002°38'0 0.0
2015-Jun-27 09:33N 39°33' E 002°38'0 0.0
2015-Jun-27 08:33N 39°33' E 002°38'0 0.0
2015-Jun-27 07:33N 39°33' E 002°38'0 0.0
2015-Jun-27 06:33N 39°33' E 002°38'0 0.0
2015-Jun-27 05:33N 39°33' E 002°38'0 0.0
2015-Jun-27 04:33N 39°33' E 002°38'0 0.1
2015-Jun-27 03:33N 39°33' E 002°38'6 6.2
2015-Jun-27 02:33N 39°27' E 002°35'1010.0
2015-Jun-27 01:33N 39°24' E 002°23'1110.9
2015-Jun-27 00:33N 39°24' E 002°09'1110.9
2015-Jun-26 23:33N 39°24' E 001°55'1111.1
2015-Jun-26 22:34N 39°24' E 001°40'1111.0
2015-Jun-26 21:32N 39°24' E 001°26'1111.1
2015-Jun-26 20:33N 39°24' E 001°12'1111.2
2015-Jun-26 19:32N 39°24' E 000°57'1111.4
2015-Jun-26 18:33N 39°25' E 000°42'1111.0
2015-Jun-26 17:33N 39°24' E 000°28'1212.3
2015-Jun-26 16:33N 39°24' E 000°12'1616.3
2015-Jun-26 15:33N 39°24' W 000°09'9 0.9
2015-Jun-26 05:34N 39°27' W 000°19'8 7.5
2015-Jun-26 04:33N 39°22' W 000°12'3310.9
2015-Jun-26 01:33N 38°58' E 000°16'1210.6
2015-Jun-26 00:26N 38°48' E 000°25'9 9.6
2015-Jun-25 23:33N 38°40' E 000°26'1111.2
2015-Jun-25 22:32N 38°30' E 000°19'1111.2
2015-Jun-25 21:33N 38°20' E 000°12'1616.0
2015-Jun-25 20:33N 38°07' E 000°00'1717.2
2015-Jun-25 19:33N 37°52' W 000°11'1716.8
2015-Jun-25 18:34N 37°39' W 000°24'1616.0
2015-Jun-25 17:33N 37°30' W 000°40'16 1.7
2015-Jun-25 08:17N 37°36' W 000°59'4 5.4
2015-Jun-25 07:30N 37°32' W 001°01'8613.5
2015-Jun-25 01:07N 36°24' W 002°08'1217.0
2015-Jun-25 00:23N 36°20' W 002°22'14418.4
2015-Jun-24 16:34N 35°59' W 005°19'32 2.8
2015-Jun-24 05:08N 35°52' W 005°58'15 0.4
2015-Jun-22 18:33N 35°58' W 005°40'9 8.3
2015-Jun-22 17:31N 35°60' W 005°30'7 7.6
2015-Jun-22 16:33N 36°05' W 005°23'5 0.4
2015-Jun-22 04:33N 36°06' W 005°17'12310.9
2015-Jun-21 17:11N 36°24' W 002°45'710.8
2015-Jun-21 16:33N 36°25' W 002°37'1111.2
2015-Jun-21 15:33N 36°26' W 002°23'1313.3
2015-Jun-21 14:33N 36°28' W 002°07'  

Dump ship's entire track history